Time;durP1;ratioP1;P1;durP2;ratioP2;P2;SDS_P1;SDS_P2;PMS_P1;PMS_P2;Temp;Humidity;BMP_temperature;BMP_pressure;BME280_temperature;BME280_humidity;BME280_pressure;Samples;Min_cycle;Max_cycle;Signal;HPM_P1;HPM_P2
2022/05/14 00:01:14;;;;;;;20.58;8.52;;;;;;;13.58;63.36;102015.00;4966118;28;20023;-81
2022/05/14 00:03:39;;;;;;;20.23;8.40;;;;;;;13.58;62.74;102012.38;4971156;28;20130;-80
2022/05/14 00:06:09;;;;;;;17.65;7.95;;;;;;;13.56;62.46;102022.81;4971195;28;20105;-81
2022/05/14 00:08:34;;;;;;;;;;;;;;;13.74;61.91;102022.47;4954563;28;20027;-81
2022/05/14 00:13:44;;;;;;;18.42;7.68;;;;;;;13.60;62.36;102017.66;4971022;28;20070;-81
2022/05/14 00:16:11;;;;;;;17.38;7.38;;;;;;;13.55;61.91;102017.53;4974009;28;20031;-81
2022/05/14 00:18:37;;;;;;;16.65;7.47;;;;;;;13.56;62.05;102014.94;4974820;28;20094;-81
2022/05/14 00:21:03;;;;;;;19.08;7.72;;;;;;;13.54;61.99;102018.34;4973838;28;20101;-81
2022/05/14 00:23:29;;;;;;;17.10;7.75;;;;;;;13.51;61.95;102008.69;4973956;28;20047;-81
2022/05/14 00:25:54;;;;;;;19.23;7.47;;;;;;;13.49;61.64;102010.38;4974705;28;20030;-81
2022/05/14 00:28:20;;;;;;;22.30;7.25;;;;;;;13.46;61.76;102007.66;4974470;28;20030;-82
2022/05/14 00:30:46;;;;;;;14.90;6.90;;;;;;;13.44;61.97;102011.06;4974169;28;20121;-82
2022/05/14 00:33:11;;;;;;;18.10;7.35;;;;;;;13.40;61.91;102007.47;4957346;28;20081;-81
2022/05/14 00:35:37;;;;;;;17.40;7.40;;;;;;;13.39;61.75;102003.06;4974684;28;20518;-81
2022/05/14 00:38:03;;;;;;;16.65;7.10;;;;;;;13.39;61.97;102008.31;4974346;28;20096;-82
2022/05/14 00:40:33;;;;;;;19.70;8.00;;;;;;;13.37;61.69;102000.41;4973835;28;20486;-82
2022/05/14 00:42:59;;;;;;;19.08;7.20;;;;;;;13.38;61.60;102002.19;4974309;28;20438;-82
2022/05/14 00:45:25;;;;;;;20.40;7.10;;;;;;;13.32;61.63;102008.94;4974254;28;20106;-81
2022/05/14 00:47:53;;;;;;;16.95;6.80;;;;;;;13.25;61.78;102002.59;4974228;28;20018;-82
2022/05/14 00:50:41;;;;;;;19.85;7.40;;;;;;;13.26;61.64;102007.00;4974251;28;20034;-82
2022/05/14 00:53:16;;;;;;;16.75;7.13;;;;;;;13.28;61.65;101999.19;4962438;28;20093;-81
2022/05/14 00:55:44;;;;;;;24.83;7.78;;;;;;;13.23;62.06;102002.56;4974099;28;20022;-81
2022/05/14 00:58:14;;;;;;;16.27;7.43;;;;;;;13.22;62.04;102011.28;4974075;28;20030;-81
2022/05/14 01:00:39;;;;;;;14.57;7.25;;;;;;;13.20;62.19;102002.47;4973555;28;20184;-81
2022/05/14 01:03:05;;;;;;;25.13;7.78;;;;;;;13.18;62.49;102000.66;4974030;28;20566;-81
2022/05/14 01:05:31;;;;;;;21.08;7.63;;;;;;;13.20;62.28;102002.47;4973877;28;20023;-81
2022/05/14 01:08:01;;;;;;;18.33;7.35;;;;;;;13.16;62.66;102007.56;4974120;28;20042;-81
2022/05/14 01:10:33;;;;;;;16.17;7.57;;;;;;;13.08;63.02;102007.31;4973735;28;20022;-81
2022/05/14 01:13:01;;;;;;;18.20;7.93;;;;;;;13.02;63.01;101999.25;4972880;28;20039;-82
2022/05/14 01:15:48;;;;;;;23.23;7.68;;;;;;;13.10;62.91;101996.91;4973673;28;20039;-82
2022/05/14 01:18:14;;;;;;;16.92;7.57;;;;;;;13.03;63.00;102001.94;4973963;28;20027;-81
2022/05/14 01:20:40;;;;;;;18.83;7.75;;;;;;;12.98;62.98;102000.91;4973673;28;20532;-82
2022/05/14 01:23:19;;;;;;;20.10;7.68;;;;;;;12.99;62.91;101997.47;4972863;28;20061;-82
2022/05/14 01:28:46;;;;;;;18.30;8.10;;;;;;;12.92;63.41;101990.25;4973959;28;20512;-81
2022/05/14 01:31:12;;;;;;;15.23;7.70;;;;;;;12.91;63.28;101991.06;4961412;28;20022;-81
2022/05/14 01:33:37;;;;;;;17.42;7.78;;;;;;;12.89;63.08;101992.78;4955487;28;20304;-81
2022/05/14 01:36:07;;;;;;;19.77;7.32;;;;;;;12.82;63.17;101993.41;4957790;28;20034;-80
2022/05/14 01:38:33;;;;;;;15.15;6.82;;;;;;;12.81;62.78;102002.09;4969135;28;20042;-81
2022/05/14 01:40:59;;;;;;;17.38;7.25;;;;;;;12.82;63.05;101998.63;4973443;28;20023;-82
2022/05/14 01:43:24;;;;;;;18.45;7.32;;;;;;;12.78;62.83;102002.84;4972437;28;20031;-81
2022/05/14 01:45:49;;;;;;;15.60;6.60;;;;;;;12.77;62.36;102008.03;4973486;28;20063;-82
2022/05/14 01:48:15;;;;;;;14.00;6.63;;;;;;;12.73;62.67;101998.31;4954930;28;20109;-81
2022/05/14 01:50:41;;;;;;;15.90;6.90;;;;;;;12.68;62.90;102006.00;4973222;28;20022;-82
2022/05/14 01:53:07;;;;;;;12.35;6.15;;;;;;;12.65;62.64;102011.13;4972410;28;20022;-82
2022/05/14 01:55:32;;;;;;;13.80;5.95;;;;;;;12.67;62.53;102009.44;4972985;28;20030;-81
2022/05/14 01:57:58;;;;;;;13.77;5.93;;;;;;;12.66;62.14;102007.69;4972938;28;20034;-82
2022/05/14 02:00:23;;;;;;;13.63;5.70;;;;;;;12.63;62.50;102007.56;4972806;28;20390;-81
2022/05/14 02:02:48;;;;;;;12.10;5.68;;;;;;;12.61;62.35;102009.25;4959400;28;20475;-81
2022/05/14 02:05:15;;;;;;;12.77;5.50;;;;;;;12.59;62.02;102010.94;4970655;28;20501;-82
2022/05/14 02:07:41;;;;;;;16.55;5.63;;;;;;;12.59;62.23;102011.81;4972912;28;20026;-81
2022/05/14 02:10:07;;;;;;;13.43;5.35;;;;;;;12.57;62.02;102013.50;4972895;28;20038;-81
2022/05/14 02:12:32;;;;;;;13.85;5.43;;;;;;;12.58;62.08;102010.03;4981304;28;20058;-81
2022/05/14 02:14:58;;;;;;;11.25;5.60;;;;;;;12.55;62.36;102015.16;5307756;23;20580;-80
2022/05/14 02:17:23;;;;;;;18.67;5.55;;;;;;;12.50;62.35;102012.41;4965430;28;20030;-80
2022/05/14 02:19:49;;;;;;;14.90;5.68;;;;;;;12.50;62.10;102011.53;4965680;28;20039;-80
2022/05/14 02:22:15;;;;;;;16.67;5.60;;;;;;;12.52;62.57;102012.44;4967231;28;20106;-81
2022/05/14 02:24:41;;;;;;;14.80;5.55;;;;;;;12.50;62.52;102006.28;4970790;28;20109;-80
2022/05/14 02:27:09;;;;;;;15.88;5.78;;;;;;;12.47;62.68;102016.59;4955301;28;20030;-80
2022/05/14 02:29:54;;;;;;;14.45;5.78;;;;;;;12.49;62.46;102017.56;4971821;28;20031;-80
2022/05/14 02:32:22;;;;;;;12.05;5.53;;;;;;;12.47;62.50;102019.22;4957182;28;20439;-80
2022/05/14 02:34:47;;;;;;;15.20;5.97;;;;;;;12.45;62.58;102018.28;4967383;28;20109;-81
2022/05/14 02:37:14;;;;;;;14.50;5.82;;;;;;;12.45;62.60;102015.69;4968039;28;20493;-81
2022/05/14 02:39:39;;;;;;;13.82;5.78;;;;;;;12.42;62.56;102018.19;4972236;28;20089;-80
2022/05/14 02:42:05;;;;;;;15.75;5.65;;;;;;;12.35;62.37;102017.06;4955068;28;20019;-80
2022/05/14 02:44:30;;;;;;;12.25;6.65;;;;;;;12.31;62.62;102021.31;4963254;28;20562;-80
2022/05/14 02:46:55;;;;;;;16.50;5.75;;;;;;;12.29;62.88;102015.13;4972189;28;20029;-80
2022/05/14 02:49:21;;;;;;;17.38;5.72;;;;;;;12.26;62.65;102012.41;4972331;28;20675;-80
2022/05/14 02:51:47;;;;;;;15.88;6.15;;;;;;;12.24;62.83;102014.09;4971365;28;20033;-80
2022/05/14 02:54:12;;;;;;;15.95;5.90;;;;;;;12.24;62.84;102027.16;4954713;28;20495;-80
2022/05/14 02:56:37;;;;;;;10.18;5.30;;;;;;;12.19;62.61;102023.47;4971931;28;20023;-80
2022/05/14 02:59:08;;;;;;;14.38;5.45;;;;;;;12.20;63.10;102022.66;4971972;28;20026;-80
2022/05/14 03:01:35;;;;;;;14.68;6.32;;;;;;;12.17;62.87;102015.59;4954273;28;20022;-80
2022/05/14 03:04:01;;;;;;;11.20;5.47;;;;;;;12.16;62.93;102018.16;4972106;28;20019;-80
2022/05/14 03:06:27;;;;;;;13.82;5.20;;;;;;;12.11;63.08;102028.44;4971772;28;20069;-80
2022/05/14 03:08:53;;;;;;;11.95;5.13;;;;;;;12.09;62.83;102024.88;4971460;28;20031;-80
2022/05/14 03:11:18;;;;;;;14.23;5.38;;;;;;;12.08;63.07;102022.19;4971552;28;20391;-80
2022/05/14 03:13:44;;;;;;;17.50;5.18;;;;;;;12.06;62.99;102018.66;4971946;28;20065;-81
2022/05/14 03:16:10;;;;;;;12.85;5.10;;;;;;;12.07;63.19;102018.72;4951088;28;20585;-80
2022/05/14 03:18:35;;;;;;;12.07;5.30;;;;;;;12.07;63.09;102020.44;4951908;28;20023;-80
2022/05/14 03:21:01;;;;;;;13.55;5.50;;;;;;;12.09;63.22;102016.16;4947138;28;20106;-80
2022/05/14 03:23:26;;;;;;;11.52;5.22;;;;;;;12.06;63.13;102013.44;4951670;28;20046;-80
2022/05/14 03:25:51;;;;;;;11.70;5.15;;;;;;;11.99;62.93;102017.53;4952367;28;20110;-80
2022/05/14 03:28:17;;;;;;;13.30;5.18;;;;;;;11.98;63.11;102016.66;4952395;28;20027;-80
2022/05/14 03:30:42;;;;;;;13.05;5.30;;;;;;;11.96;63.22;102018.34;4952017;28;20098;-80
2022/05/14 03:33:08;;;;;;;11.18;4.97;;;;;;;11.95;63.35;102016.53;4964009;28;20479;-80
2022/05/14 03:35:33;;;;;;;8.73;5.28;;;;;;;11.97;63.38;102020.09;4946846;28;20019;-81
2022/05/14 03:37:58;;;;;;;11.50;5.35;;;;;;;11.95;63.07;102020.88;4951075;28;20550;-79
2022/05/14 03:40:24;;;;;;;11.48;4.82;;;;;;;11.87;63.10;102014.44;4963725;28;20024;-80
2022/05/14 03:42:49;;;;;;;14.07;5.70;;;;;;;11.83;63.77;102016.94;4955716;28;20372;-80
2022/05/14 03:45:14;;;;;;;14.70;5.90;;;;;;;11.82;63.79;102015.16;4959404;28;20027;-80
2022/05/14 03:47:39;;;;;;;13.57;5.78;;;;;;;11.85;63.79;102014.41;4950910;28;20394;-80
2022/05/14 03:50:05;;;;;;;11.07;5.47;;;;;;;11.82;63.78;102019.50;4955098;28;20403;-80
2022/05/14 03:52:30;;;;;;;12.57;5.47;;;;;;;11.85;63.95;102014.41;4955304;28;20403;-80
2022/05/14 03:54:56;;;;;;;17.55;6.20;;;;;;;11.79;63.56;102003.72;4954681;28;20035;-80
2022/05/14 03:57:21;;;;;;;14.88;6.05;;;;;;;11.76;63.60;102008.81;4954414;28;20038;-80
2022/05/14 03:59:46;;;;;;;11.75;5.53;;;;;;;11.80;64.10;102021.16;4954520;28;20586;-80
2022/05/14 04:02:12;;;;;;;12.82;5.57;;;;;;;11.74;63.84;102018.31;4955704;28;20028;-80
2022/05/14 04:04:37;;;;;;;14.40;5.43;;;;;;;11.74;64.13;102018.31;4967286;28;20031;-80
2022/05/14 04:07:03;;;;;;;16.05;5.78;;;;;;;11.74;64.01;102018.31;4951551;28;20074;-80
2022/05/14 04:09:28;;;;;;;15.00;5.88;;;;;;;11.70;64.19;102016.41;4955000;28;20110;-80
2022/05/14 04:11:54;;;;;;;14.10;5.50;;;;;;;11.64;64.44;102020.59;4955460;28;20410;-80
2022/05/14 04:14:20;;;;;;;13.13;5.22;;;;;;;11.63;64.45;102025.75;4955388;28;20049;-80
2022/05/14 04:16:46;;;;;;;12.32;5.35;;;;;;;11.64;64.57;102024.91;4955625;28;20070;-80
2022/05/14 04:19:11;;;;;;;11.32;5.30;;;;;;;11.63;64.67;102028.38;4954975;28;20498;-80
2022/05/14 04:21:38;;;;;;;15.63;5.82;;;;;;;11.65;64.75;102027.56;4955641;28;20016;-80
2022/05/14 04:24:04;;;;;;;12.00;5.93;;;;;;;11.58;64.75;102025.56;4955298;28;20035;-80
2022/05/14 04:26:29;;;;;;;12.82;5.70;;;;;;;11.57;65.01;102026.41;4955498;28;20031;-80
2022/05/14 04:28:55;;;;;;;13.02;6.03;;;;;;;11.56;64.97;102028.97;4954839;28;20065;-80
2022/05/14 04:31:21;;;;;;;15.15;6.05;;;;;;;11.59;65.11;102031.69;4954613;28;20114;-80
2022/05/14 04:33:47;;;;;;;14.15;5.72;;;;;;;11.55;65.25;102029.78;4955387;28;20054;-80
2022/05/14 04:36:12;;;;;;;15.98;6.03;;;;;;;11.58;65.36;102035.13;4966943;28;20024;-81
2022/05/14 04:38:38;;;;;;;11.88;5.85;;;;;;;11.56;65.50;102027.22;4950127;28;20411;-80
2022/05/14 04:41:03;;;;;;;15.07;6.03;;;;;;;11.51;65.66;102023.53;4966991;28;20024;-80
2022/05/14 04:43:28;;;;;;;14.73;6.28;;;;;;;11.46;66.00;102030.31;4951168;28;20035;-80
2022/05/14 04:45:54;;;;;;;15.40;6.13;;;;;;;11.43;65.94;102035.44;4951827;28;20409;-80
2022/05/14 04:48:20;;;;;;;15.23;6.35;;;;;;;11.42;66.41;102044.94;4953214;28;20027;-80
2022/05/14 04:50:46;;;;;;;12.20;6.00;;;;;;;11.40;66.37;102041.41;4955002;28;20037;-80
2022/05/14 04:53:12;;;;;;;17.02;6.63;;;;;;;11.39;66.46;102033.53;4968583;28;20123;-80
2022/05/14 04:55:38;;;;;;;14.50;6.22;;;;;;;11.41;66.72;102031.84;4953019;28;20527;-80
2022/05/14 04:58:06;;;;;;;16.88;6.07;;;;;;;11.43;66.72;102040.66;4954748;28;20039;-80
2022/05/14 05:00:31;;;;;;;17.90;6.50;;;;;;;11.42;66.71;102037.13;4954090;28;20029;-79
2022/05/14 05:05:40;;;;;;;18.67;6.50;;;;;;;11.47;66.79;102039.91;4944208;28;20106;-80
2022/05/14 05:08:06;;;;;;;15.48;7.10;;;;;;;11.44;66.98;102039.78;4954548;28;20015;-80
2022/05/14 05:10:31;;;;;;;13.23;6.35;;;;;;;11.47;67.19;102042.50;4954726;28;20031;-80
2022/05/14 05:12:56;;;;;;;16.33;6.82;;;;;;;11.51;67.06;102041.81;4952461;28;20391;-80
2022/05/14 05:15:22;;;;;;;17.67;7.25;;;;;;;11.56;67.24;102055.06;4953663;28;20051;-80
2022/05/14 05:17:47;;;;;;;21.67;7.15;;;;;;;11.58;67.38;102062.09;4973728;28;20494;-80
2022/05/14 05:20:13;;;;;;;15.35;7.50;;;;;;;11.58;67.45;102059.50;4973738;28;20102;-80
2022/05/14 05:22:38;;;;;;;16.17;7.15;;;;;;;11.58;67.77;102054.28;4973689;28;20406;-80
2022/05/14 05:25:05;;;;;;;21.75;7.47;;;;;;;11.60;67.80;102051.72;4968453;28;20054;-80
2022/05/14 05:27:31;;;;;;;16.02;7.22;;;;;;;11.61;68.34;102056.13;4966893;28;20034;-80
2022/05/14 05:29:56;;;;;;;19.15;7.88;;;;;;;11.61;68.17;102057.00;4955047;28;20038;-80
2022/05/14 05:32:22;;;;;;;17.02;7.38;;;;;;;11.69;67.48;102066.84;4972451;28;20069;-80
2022/05/14 05:34:47;;;;;;;20.33;8.25;;;;;;;11.69;68.24;102072.06;4973497;28;20037;-81
2022/05/14 05:37:12;;;;;;;19.63;8.10;;;;;;;11.70;68.20;102076.47;4973414;28;20027;-80
2022/05/14 05:39:37;;;;;;;16.98;8.10;;;;;;;11.72;68.52;102073.09;4973417;28;20050;-80
2022/05/14 05:42:03;;;;;;;20.02;8.00;;;;;;;11.76;68.84;102076.69;4972599;28;20023;-80
2022/05/14 05:44:29;;;;;;;19.63;9.13;;;;;;;11.76;68.91;102074.09;4973444;28;20035;-80
2022/05/14 05:46:54;;;;;;;23.00;8.90;;;;;;;11.80;69.37;102069.06;4973192;28;20105;-81
2022/05/14 05:49:20;;;;;;;21.70;8.93;;;;;;;11.86;68.81;102067.50;4973033;28;20073;-79
2022/05/14 05:51:46;;;;;;;18.90;9.60;;;;;;;11.86;69.70;102068.41;4955069;28;20027;-81
2022/05/14 05:56:59;;;;;;;24.98;10.45;;;;;;;12.26;68.78;102074.25;4973267;28;20065;-80
2022/05/14 05:59:27;;;;;;;24.63;10.50;;;;;;;12.60;68.79;102094.66;4973194;28;20041;-80
2022/05/14 06:01:53;;;;;;;22.05;9.90;;;;;;;12.87;67.75;102089.50;4972518;28;20050;-80
2022/05/14 06:04:20;;;;;;;26.13;10.90;;;;;;;13.19;67.03;102084.47;4973037;28;20478;-81
2022/05/14 06:06:46;;;;;;;23.77;10.38;;;;;;;13.47;64.33;102080.13;4972875;28;20062;-81
2022/05/14 06:09:14;;;;;;;24.33;10.98;;;;;;;13.68;64.30;102079.91;4972601;28;20109;-80
2022/05/14 06:11:41;;;;;;;24.08;11.10;;;;;;;13.81;63.90;102080.28;4971679;28;20079;-81
2022/05/14 06:14:07;;;;;;;27.38;11.60;;;;;;;13.83;65.17;102089.06;4971876;28;20030;-81
2022/05/14 06:16:32;;;;;;;23.38;9.95;;;;;;;13.91;63.46;102087.56;4964558;28;20086;-80
2022/05/14 06:18:58;;;;;;;34.33;12.20;;;;;;;13.89;63.77;102084.03;4948217;28;20458;-81
2022/05/14 06:21:23;;;;;;;25.88;11.68;;;;;;;13.88;64.01;102077.00;4952699;28;20396;-81
2022/05/14 06:23:49;;;;;;;31.10;13.15;;;;;;;13.85;65.99;102079.53;4954040;28;20055;-81
2022/05/14 06:26:14;;;;;;;33.35;13.10;;;;;;;13.80;67.26;102094.22;4953242;28;20368;-81
2022/05/14 06:28:40;;;;;;;31.48;13.13;;;;;;;13.84;66.04;102090.84;4953406;28;20515;-81
2022/05/14 06:31:05;;;;;;;38.15;13.93;;;;;;;13.84;67.16;102101.34;4953106;28;20078;-79
2022/05/14 06:33:30;;;;;;;38.97;14.35;;;;;;;13.85;67.07;102105.75;4952292;28;20038;-80
2022/05/14 06:35:58;;;;;;;32.38;13.82;;;;;;;13.87;67.81;102106.66;4953139;28;20022;-79
2022/05/14 06:38:23;;;;;;;34.67;14.55;;;;;;;13.86;67.32;102110.13;4953076;28;20495;-80
2022/05/14 06:40:48;;;;;;;29.67;12.20;;;;;;;13.90;63.03;102102.41;4951838;28;20034;-80
2022/05/14 06:43:16;;;;;;;38.92;15.88;;;;;;;13.92;66.92;102112.94;4952398;28;20522;-80
2022/05/14 06:45:43;;;;;;;41.72;15.77;;;;;;;13.92;68.03;102112.94;4952195;28;20027;-81
2022/05/14 06:48:09;;;;;;;46.22;15.35;;;;;;;13.99;67.44;102116.63;4952995;28;20391;-81
2022/05/14 06:50:39;;;;;;;35.10;14.20;;;;;;;14.03;66.40;102113.25;4952726;28;20063;-81
2022/05/14 06:53:06;;;;;;;37.92;15.90;;;;;;;14.07;68.44;102108.13;4952436;28;20038;-81
2022/05/14 06:55:36;;;;;;;40.72;15.80;;;;;;;14.13;67.45;102111.81;4952820;28;20060;-81
2022/05/14 06:58:02;;;;;;;38.33;15.40;;;;;;;14.20;66.64;102108.50;4952366;28;20038;-81
2022/05/14 07:00:27;;;;;;;40.78;16.45;;;;;;;14.22;66.14;102107.72;4964776;28;20071;-81
2022/05/14 07:06:37;;;;;;;47.92;17.45;;;;;;;14.25;67.69;102106.91;4948188;28;20097;-79
2022/05/14 07:08:24;;;;;;;45.55;17.77;;;;;;;14.36;67.54;102102.84;4952522;28;20046;-83
2022/05/14 07:10:49;;;;;;;43.10;16.13;;;;;;;14.42;63.40;102107.38;4945821;28;20446;-80
2022/05/14 07:13:14;;;;;;;48.90;18.45;;;;;;;14.47;65.55;102105.78;4952238;28;20027;-81
2022/05/14 07:15:40;;;;;;;52.90;18.42;;;;;;;14.52;68.02;102113.78;4961950;28;20430;-80
2022/05/14 07:18:05;;;;;;;51.35;19.83;;;;;;;14.52;66.97;102106.78;4972274;28;20073;-81
2022/05/14 07:20:30;;;;;;;50.33;18.55;;;;;;;14.60;67.30;102114.91;4967307;28;20395;-80
2022/05/14 07:22:56;;;;;;;49.97;19.27;;;;;;;14.65;68.04;102112.41;4964872;28;20039;-81
2022/05/14 07:25:21;;;;;;;50.00;18.88;;;;;;;14.67;65.99;102113.34;4971148;28;20026;-81
2022/05/14 07:27:46;;;;;;;50.80;20.85;;;;;;;14.70;68.23;102111.72;4971598;28;20031;-81
2022/05/14 07:30:15;;;;;;;61.70;21.63;;;;;;;14.73;67.97;102117.03;4988429;28;20026;-81
2022/05/14 07:32:40;;;;;;;57.55;21.40;;;;;;;14.78;67.27;102117.16;4974486;28;20517;-81
2022/05/14 07:35:06;;;;;;;63.13;21.58;;;;;;;14.81;66.57;102111.09;4971640;28;20058;-79
2022/05/14 07:37:34;;;;;;;64.88;23.02;;;;;;;14.86;68.33;102110.38;4971606;28;20105;-81
2022/05/14 07:40:08;;;;;;;58.40;22.55;;;;;;;14.90;66.75;102108.69;4971687;28;20031;-81
2022/05/14 07:42:50;;;;;;;65.68;22.45;;;;;;;14.94;67.87;102110.56;4971117;28;20031;-82
2022/05/14 07:45:20;;;;;;;54.92;21.85;;;;;;;15.00;67.86;102107.22;4969838;28;20031;-80
2022/05/14 07:47:46;;;;;;;75.18;23.60;;;;;;;15.04;68.44;102122.19;4971616;28;20037;-81
2022/05/14 07:50:13;;;;;;;60.00;22.67;;;;;;;15.09;68.49;102116.22;4971591;28;20023;-79
2022/05/14 07:52:39;;;;;;;56.17;23.00;;;;;;;15.12;67.15;102113.66;4964728;28;20027;-81
2022/05/14 07:55:05;;;;;;;58.50;22.30;;;;;;;15.16;67.95;102113.75;4964153;28;20455;-81
2022/05/14 07:57:30;;;;;;;60.58;22.75;;;;;;;15.22;67.83;102108.63;4969276;28;20449;-71
2022/05/14 07:59:55;;;;;;;60.28;21.95;;;;;;;15.28;69.10;102114.06;4970135;28;20071;-70
2022/05/14 08:02:22;;;;;;;52.30;21.67;;;;;;;15.33;67.86;102124.66;4971355;28;20110;-70
2022/05/14 08:04:48;;;;;;;56.80;21.45;;;;;;;15.37;68.52;102122.16;4970830;28;20054;-70
2022/05/14 08:07:14;;;;;;;53.90;21.27;;;;;;;15.42;70.04;102112.63;4970397;28;20034;-70
2022/05/14 08:09:39;;;;;;;51.15;19.77;;;;;;;15.47;66.84;102118.00;4971614;28;20317;-70
2022/05/14 08:12:05;;;;;;;51.92;19.00;;;;;;;15.51;66.35;102117.25;4970973;28;20433;-71
2022/05/14 08:14:30;;;;;;;45.33;19.65;;;;;;;15.57;67.31;102121.72;4969340;28;20038;-70
2022/05/14 08:16:56;;;;;;;47.92;18.75;;;;;;;15.61;67.34;102119.22;4967925;28;20034;-70
2022/05/14 08:19:21;;;;;;;55.83;19.77;;;;;;;15.70;67.85;102122.91;4970204;28;20023;-70
2022/05/14 08:24:30;;;;;;;47.28;17.40;;;;;;;15.84;68.19;102115.38;4969412;28;20041;-70
2022/05/14 08:27:00;;;;;;;40.10;17.38;;;;;;;15.91;68.67;102122.53;4966819;28;20027;-70
2022/05/14 08:29:26;;;;;;;35.47;16.98;;;;;;;15.96;69.42;102102.47;4966543;28;20475;-70
2022/05/14 08:31:51;;;;;;;39.53;16.90;;;;;;;16.05;68.77;102115.84;4971132;28;20077;-70
2022/05/14 08:34:17;;;;;;;37.35;16.15;;;;;;;16.14;68.61;102118.66;4970260;28;20023;-70
2022/05/14 08:36:43;;;;;;;31.50;13.38;;;;;;;16.21;68.83;102118.81;4973086;28;20093;-70
2022/05/14 08:39:10;;;;;;;38.45;16.25;;;;;;;16.27;66.78;102121.56;4974612;28;20433;-70
2022/05/14 08:41:39;;;;;;;33.83;15.90;;;;;;;16.37;68.53;102122.63;4970013;28;20034;-70
2022/05/14 08:44:08;;;;;;;29.20;14.35;;;;;;;16.41;67.89;102114.84;4967611;28;20055;-69
2022/05/14 08:46:35;;;;;;;;;;;;;;;16.47;67.04;102119.34;4961987;28;20031;-70
2022/05/14 08:49:10;;;;;;;38.72;14.80;;;;;;;16.52;67.44;102123.84;4974299;28;19914;-70
2022/05/14 08:51:40;;;;;;;31.95;14.30;;;;;;;16.56;65.13;102118.63;4974317;28;20062;-70
2022/05/14 08:54:06;;;;;;;31.60;14.18;;;;;;;16.63;67.70;102115.25;4973820;28;20035;-69
2022/05/14 08:56:43;;;;;;;27.00;13.95;;;;;;;16.72;66.85;102109.28;4973529;28;20459;-69
2022/05/14 08:59:25;;;;;;;32.70;15.30;;;;;;;16.79;64.66;102108.53;4973447;28;20031;-70
2022/05/14 09:01:58;;;;;;;27.45;13.88;;;;;;;16.83;63.63;102108.59;4972556;28;20101;-69
2022/05/14 09:04:24;;;;;;;29.92;14.00;;;;;;;16.85;64.99;102109.50;4970639;28;20030;-70
2022/05/14 09:06:50;;;;;;;29.75;13.18;;;;;;;16.92;65.45;102117.56;4973084;28;20041;-69
2022/05/14 09:09:17;;;;;;;30.75;13.95;;;;;;;17.00;66.64;102110.66;4973802;28;20379;-69
2022/05/14 09:11:54;;;;;;;29.25;14.23;;;;;;;17.07;66.85;102112.56;4973154;28;20027;-70
2022/05/14 09:14:28;;;;;;;25.40;13.95;;;;;;;17.17;66.96;102111.84;4973071;28;20041;-70
2022/05/14 09:17:13;;;;;;;26.67;13.73;;;;;;;17.27;66.54;102127.81;4973046;28;20462;-75
2022/05/14 09:19:43;;;;;;;28.13;13.18;;;;;;;17.36;65.99;102127.97;4971747;28;20030;-75
2022/05/14 09:22:30;;;;;;;27.52;14.05;;;;;;;17.41;64.14;102120.13;4950719;28;20114;-75
2022/05/14 09:25:18;;;;;;;28.40;13.50;;;;;;;17.47;63.56;102115.84;4963307;28;20053;-76
2022/05/14 09:27:51;;;;;;;22.13;11.57;;;;;;;17.51;61.65;102109.75;4972360;28;20023;-75
2022/05/14 09:30:36;;;;;;;27.45;14.10;;;;;;;17.51;61.16;102108.84;4971470;28;20026;-77
2022/05/14 09:33:04;;;;;;;30.80;12.80;;;;;;;17.59;61.11;102111.63;4973306;28;20149;-78
2022/05/14 09:35:32;;;;;;;26.75;13.18;;;;;;;17.61;62.40;102104.63;4972491;28;20026;-77
2022/05/14 09:38:21;;;;;;;27.23;12.63;;;;;;;17.64;62.02;102102.03;4973466;28;20027;-76
2022/05/14 09:40:46;;;;;;;28.05;12.88;;;;;;;17.66;60.86;102102.94;4973324;28;20035;-77
2022/05/14 09:43:15;;;;;;;22.50;11.18;;;;;;;17.76;60.42;102090.78;4973303;28;20030;-77
2022/05/14 09:45:43;;;;;;;22.92;11.95;;;;;;;17.84;61.74;102099.66;4971259;28;20026;-75
2022/05/14 09:48:16;;;;;;;26.15;11.20;;;;;;;17.86;60.40;102104.09;4969554;28;20106;-76
2022/05/14 09:50:45;;;;;;;25.65;11.23;;;;;;;17.97;60.88;102096.34;4955030;28;20069;-76
2022/05/14 09:53:11;;;;;;;24.60;11.40;;;;;;;17.97;58.85;102093.72;4965002;28;20078;-76
2022/05/14 09:56:09;;;;;;;21.35;10.55;;;;;;;18.04;59.96;102095.56;4949473;28;20035;-77
2022/05/14 09:59:01;;;;;;;18.73;10.40;;;;;;;18.10;59.15;102100.03;4969191;28;20039;-77
2022/05/14 10:01:41;;;;;;;21.30;9.25;;;;;;;18.23;59.29;102099.34;4966462;28;20529;-78
2022/05/14 10:04:11;;;;;;;18.75;9.80;;;;;;;18.32;59.12;102095.94;4965883;28;20023;-78
2022/05/14 10:07:09;;;;;;;21.15;10.20;;;;;;;18.43;60.03;102103.94;4964436;28;20030;-76
2022/05/14 10:09:53;;;;;;;14.50;7.10;;;;;;;18.51;59.19;102091.75;4965570;28;20039;-77
2022/05/14 10:12:28;;;;;;;15.70;8.77;;;;;;;18.59;59.50;102092.69;4963566;28;20398;-77
2022/05/14 10:15:05;;;;;;;19.52;9.45;;;;;;;18.61;57.43;102098.00;4967627;28;20050;-79
2022/05/14 10:17:44;;;;;;;20.55;9.93;;;;;;;18.68;58.24;102099.81;4966890;28;20035;-77
2022/05/14 10:20:37;;;;;;;18.00;9.63;;;;;;;18.72;57.25;102104.25;4966281;28;20747;-77
2022/05/14 10:29:31;;;;;;;24.33;10.52;;;;;;;18.88;58.44;102099.16;4969718;28;20105;-75
2022/05/14 10:32:11;;;;;;;19.75;9.60;;;;;;;19.00;57.71;102096.66;4971129;28;20045;-76
2022/05/14 10:35:18;;;;;;;20.33;8.50;;;;;;;19.14;56.70;102094.09;4971631;28;20118;-76
2022/05/14 10:37:51;;;;;;;18.20;9.00;;;;;;;19.22;55.24;102097.69;4964679;28;20039;-74
2022/05/14 10:40:43;;;;;;;18.55;9.63;;;;;;;19.23;55.33;102103.84;4970636;28;20135;-74
2022/05/14 10:43:37;;;;;;;19.25;10.10;;;;;;;19.32;54.42;102100.41;4953458;28;20589;-75
2022/05/14 10:46:09;;;;;;;18.67;10.82;;;;;;;19.37;54.24;102090.75;4971716;28;20035;-75
2022/05/14 10:48:58;;;;;;;22.85;11.20;;;;;;;19.41;53.29;102089.91;4972308;28;20019;-75
2022/05/14 10:51:29;;;;;;;26.67;11.05;;;;;;;19.47;54.79;102103.16;4968278;28;20493;-76
2022/05/14 10:53:55;;;;;;;21.00;10.45;;;;;;;19.56;54.30;102112.91;4971113;28;20049;-74
2022/05/14 10:56:59;;;;;;;18.65;10.18;;;;;;;19.62;55.01;102095.34;4971175;28;20035;-74
2022/05/14 10:59:41;;;;;;;19.60;9.77;;;;;;;19.73;54.66;102089.22;4952739;28;20095;-77
2022/05/14 11:02:14;;;;;;;19.27;9.27;;;;;;;19.93;54.20;102092.88;4962498;28;20031;-76
2022/05/14 11:04:39;;;;;;;21.98;10.30;;;;;;;20.05;55.59;102094.69;4970692;28;20062;-76
2022/05/14 11:07:10;;;;;;;18.07;10.57;;;;;;;20.20;56.55;102100.94;4970156;28;20490;-76
2022/05/14 11:09:46;;;;;;;19.30;9.90;;;;;;;20.23;52.87;102091.22;4971776;28;20033;-76
2022/05/14 11:12:21;;;;;;;19.77;10.32;;;;;;;20.33;53.77;102093.06;4971269;28;20054;-76
2022/05/14 11:14:49;;;;;;;18.38;9.85;;;;;;;20.39;52.88;102099.22;4971415;28;20529;-75
2022/05/14 11:17:40;;;;;;;21.10;10.33;;;;;;;20.45;52.64;102101.88;4971663;28;20085;-79
2022/05/14 11:20:05;;;;;;;23.67;10.43;;;;;;;20.42;49.25;102101.88;4971761;28;20061;-78
2022/05/14 11:22:39;;;;;;;22.43;10.63;;;;;;;20.39;49.09;102086.00;4971205;28;20065;-79
2022/05/14 11:25:16;;;;;;;19.15;9.13;;;;;;;20.40;50.18;102093.06;4970144;28;20018;-79
2022/05/14 11:27:52;;;;;;;19.33;9.32;;;;;;;20.42;47.28;102101.88;4969626;28;20525;-77
2022/05/14 11:30:40;;;;;;;20.80;9.90;;;;;;;20.41;51.58;102102.78;4970753;28;20024;-78
2022/05/14 11:33:31;;;;;;;19.48;10.27;;;;;;;20.52;51.84;102108.09;4971570;28;20027;-78
2022/05/14 11:36:02;;;;;;;18.67;10.27;;;;;;;20.58;50.18;102090.47;4968646;28;20031;-77
2022/05/14 11:38:27;;;;;;;22.38;10.90;;;;;;;20.63;48.12;102101.94;4970795;28;20081;-79
2022/05/14 11:40:58;;;;;;;24.55;11.82;;;;;;;20.54;48.18;102093.97;4971395;28;20062;-76
2022/05/14 11:43:32;;;;;;;22.20;12.40;;;;;;;20.55;47.58;102090.47;4969863;28;20019;-78
2022/05/14 11:46:09;;;;;;;19.67;12.65;;;;;;;20.54;47.29;102088.69;4970897;28;20038;-78